sensor_id;sensor_type;location;lat;lon;timestamp;temperature;humidity
35395;DHT22;21500;45.308;9.488;2022-12-24T08:29:03;9.50;99.90
35395;DHT22;21500;45.308;9.488;2022-12-24T08:31:42;9.40;99.90
35395;DHT22;21500;45.308;9.488;2022-12-24T08:34:16;9.50;99.90
35395;DHT22;21500;45.308;9.488;2022-12-24T08:44:36;9.60;99.90
35395;DHT22;21500;45.308;9.488;2022-12-24T08:48:06;9.40;99.90
35395;DHT22;21500;45.308;9.488;2022-12-24T08:57:30;9.40;99.90
35395;DHT22;21500;45.308;9.488;2022-12-24T08:59:56;9.40;99.90
35395;DHT22;21500;45.308;9.488;2022-12-24T09:02:22;9.60;99.90
35395;DHT22;21500;45.308;9.488;2022-12-24T10:37:45;9.80;99.90
35395;DHT22;21500;45.308;9.488;2022-12-24T10:51:55;9.80;99.90
35395;DHT22;21500;45.308;9.488;2022-12-24T10:58:20;9.90;99.90
35395;DHT22;21500;45.308;9.488;2022-12-24T11:00:51;9.90;99.90
35395;DHT22;21500;45.308;9.488;2022-12-24T11:03:22;9.90;99.90
35395;DHT22;21500;45.308;9.488;2022-12-24T11:08:33;9.90;99.90
35395;DHT22;21500;45.308;9.488;2022-12-24T11:11:06;9.90;99.90
35395;DHT22;21500;45.308;9.488;2022-12-24T11:26:02;9.90;99.90
35395;DHT22;21500;45.308;9.488;2022-12-24T11:28:33;10.00;99.90
35395;DHT22;21500;45.308;9.488;2022-12-24T11:31:21;10.00;99.90
35395;DHT22;21500;45.308;9.488;2022-12-24T11:33:50;9.90;99.90
35395;DHT22;21500;45.308;9.488;2022-12-24T11:36:25;9.90;99.90
35395;DHT22;21500;45.308;9.488;2022-12-24T11:39:38;10.00;99.90
35395;DHT22;21500;45.308;9.488;2022-12-24T11:46:12;10.00;99.90
35395;DHT22;21500;45.308;9.488;2022-12-24T11:56:51;10.10;99.90
35395;DHT22;21500;45.308;9.488;2022-12-24T12:15:37;10.00;99.90
35395;DHT22;21500;45.308;9.488;2022-12-24T12:18:41;10.00;99.90
35395;DHT22;21500;45.308;9.488;2022-12-24T12:21:18;10.10;99.90
35395;DHT22;21500;45.308;9.488;2022-12-24T12:24:25;10.00;99.90
35395;DHT22;21500;45.308;9.488;2022-12-24T12:29:35;10.00;99.90
35395;DHT22;21500;45.308;9.488;2022-12-24T12:39:15;10.00;99.90
35395;DHT22;21500;45.308;9.488;2022-12-24T12:48:39;10.00;99.90
35395;DHT22;21500;45.308;9.488;2022-12-24T12:57:11;10.00;99.90
35395;DHT22;21500;45.308;9.488;2022-12-24T12:59:43;10.00;99.90
35395;DHT22;21500;45.308;9.488;2022-12-24T13:02:59;9.90;99.90
35395;DHT22;21500;45.308;9.488;2022-12-24T13:08:02;10.00;99.90
35395;DHT22;21500;45.308;9.488;2022-12-24T13:13:43;10.00;99.90
35395;DHT22;21500;45.308;9.488;2022-12-24T13:21:28;10.00;99.90
35395;DHT22;21500;45.308;9.488;2022-12-24T13:24:18;10.00;99.90
35395;DHT22;21500;45.308;9.488;2022-12-24T13:27:15;10.00;99.90
35395;DHT22;21500;45.308;9.488;2022-12-24T13:32:37;10.00;99.90
35395;DHT22;21500;45.308;9.488;2022-12-24T13:37:50;10.00;99.90
35395;DHT22;21500;45.308;9.488;2022-12-24T13:40:23;10.00;99.90
35395;DHT22;21500;45.308;9.488;2022-12-24T13:53:26;10.00;99.90
35395;DHT22;21500;45.308;9.488;2022-12-24T13:56:05;10.00;99.90
35395;DHT22;21500;45.308;9.488;2022-12-24T13:58:33;10.00;99.90
35395;DHT22;21500;45.308;9.488;2022-12-24T14:01:04;10.00;99.90
35395;DHT22;21500;45.308;9.488;2022-12-24T14:03:44;10.00;99.90
35395;DHT22;21500;45.308;9.488;2022-12-24T14:06:19;10.00;99.90
35395;DHT22;21500;45.308;9.488;2022-12-24T14:08:47;10.00;99.90
35395;DHT22;21500;45.308;9.488;2022-12-24T14:11:25;10.00;99.90
35395;DHT22;21500;45.308;9.488;2022-12-24T14:13:54;10.00;99.90
35395;DHT22;21500;45.308;9.488;2022-12-24T14:16:42;10.00;99.90
35395;DHT22;21500;45.308;9.488;2022-12-24T14:22:32;10.00;99.90
35395;DHT22;21500;45.308;9.488;2022-12-24T14:24:42;10.00;99.90
35395;DHT22;21500;45.308;9.488;2022-12-24T14:27:22;10.00;99.90
35395;DHT22;21500;45.308;9.488;2022-12-24T14:32:39;10.10;99.90
35395;DHT22;21500;45.308;9.488;2022-12-24T14:35:19;10.00;99.90
35395;DHT22;21500;45.308;9.488;2022-12-24T14:40:29;10.00;99.90
35395;DHT22;21500;45.308;9.488;2022-12-24T14:46:06;10.00;99.90
35395;DHT22;21500;45.308;9.488;2022-12-24T14:59:47;10.00;99.90
35395;DHT22;21500;45.308;9.488;2022-12-24T15:02:49;10.00;99.90
35395;DHT22;21500;45.308;9.488;2022-12-24T15:05:18;10.00;99.90
35395;DHT22;21500;45.308;9.488;2022-12-24T15:10:37;10.10;99.90
35395;DHT22;21500;45.308;9.488;2022-12-24T15:13:14;10.00;99.90
35395;DHT22;21500;45.308;9.488;2022-12-24T15:15:45;10.00;99.90
35395;DHT22;21500;45.308;9.488;2022-12-24T15:18:14;10.10;99.90
35395;DHT22;21500;45.308;9.488;2022-12-24T15:20:47;10.10;99.90
35395;DHT22;21500;45.308;9.488;2022-12-24T15:23:19;10.10;99.90
35395;DHT22;21500;45.308;9.488;2022-12-24T15:25:45;10.10;99.90
35395;DHT22;21500;45.308;9.488;2022-12-24T15:28:18;10.10;99.90
35395;DHT22;21500;45.308;9.488;2022-12-24T15:30:45;10.10;99.90
35395;DHT22;21500;45.308;9.488;2022-12-24T15:33:11;10.10;99.90
35395;DHT22;21500;45.308;9.488;2022-12-24T15:35:55;10.10;99.90
35395;DHT22;21500;45.308;9.488;2022-12-24T15:38:25;10.10;99.90
35395;DHT22;21500;45.308;9.488;2022-12-24T15:40:53;10.10;99.90
35395;DHT22;21500;45.308;9.488;2022-12-24T15:43:19;10.10;99.90
35395;DHT22;21500;45.308;9.488;2022-12-24T15:45:46;10.10;99.90
35395;DHT22;21500;45.308;9.488;2022-12-24T15:48:25;10.10;99.90
35395;DHT22;21500;45.308;9.488;2022-12-24T15:50:55;10.10;99.90
35395;DHT22;21500;45.308;9.488;2022-12-24T15:53:31;10.10;99.90
35395;DHT22;21500;45.308;9.488;2022-12-24T15:56:36;10.10;99.90
35395;DHT22;21500;45.308;9.488;2022-12-24T16:01:50;10.10;99.90
35395;DHT22;21500;45.308;9.488;2022-12-24T16:04:27;10.10;99.90
35395;DHT22;21500;45.308;9.488;2022-12-24T16:06:58;10.10;99.90
35395;DHT22;21500;45.308;9.488;2022-12-24T16:12:12;10.10;99.90
35395;DHT22;21500;45.308;9.488;2022-12-24T16:14:39;10.10;99.90
35395;DHT22;21500;45.308;9.488;2022-12-24T16:17:18;10.10;99.90
35395;DHT22;21500;45.308;9.488;2022-12-24T16:19:51;10.10;99.90
35395;DHT22;21500;45.308;9.488;2022-12-24T16:22:19;10.10;99.90
35395;DHT22;21500;45.308;9.488;2022-12-24T16:25:02;10.10;99.90
35395;DHT22;21500;45.308;9.488;2022-12-24T16:27:39;10.10;99.90
35395;DHT22;21500;45.308;9.488;2022-12-24T16:30:06;10.10;99.90
35395;DHT22;21500;45.308;9.488;2022-12-24T16:32:34;10.20;99.90
35395;DHT22;21500;45.308;9.488;2022-12-24T16:35:03;10.10;99.90
35395;DHT22;21500;45.308;9.488;2022-12-24T16:37:29;10.10;99.90
35395;DHT22;21500;45.308;9.488;2022-12-24T16:39:55;10.10;99.90
35395;DHT22;21500;45.308;9.488;2022-12-24T16:42:21;10.10;99.90
35395;DHT22;21500;45.308;9.488;2022-12-24T16:45:06;10.10;99.90
35395;DHT22;21500;45.308;9.488;2022-12-24T16:47:33;10.10;99.90
35395;DHT22;21500;45.308;9.488;2022-12-24T16:50:02;10.10;99.90
35395;DHT22;21500;45.308;9.488;2022-12-24T16:52:29;10.10;99.90
35395;DHT22;21500;45.308;9.488;2022-12-24T16:54:58;10.10;99.90
35395;DHT22;21500;45.308;9.488;2022-12-24T16:57:24;10.10;99.90
35395;DHT22;21500;45.308;9.488;2022-12-24T16:59:51;10.10;99.90
35395;DHT22;21500;45.308;9.488;2022-12-24T17:02:20;10.00;99.90
35395;DHT22;21500;45.308;9.488;2022-12-24T17:04:46;10.00;99.90
35395;DHT22;21500;45.308;9.488;2022-12-24T17:07:15;10.00;99.90
35395;DHT22;21500;45.308;9.488;2022-12-24T17:09:41;10.00;99.90
35395;DHT22;21500;45.308;9.488;2022-12-24T17:12:07;10.00;99.90
35395;DHT22;21500;45.308;9.488;2022-12-24T17:14:33;9.90;99.90
35395;DHT22;21500;45.308;9.488;2022-12-24T17:16:59;10.00;99.90
35395;DHT22;21500;45.308;9.488;2022-12-24T17:19:24;10.00;99.90
35395;DHT22;21500;45.308;9.488;2022-12-24T17:21:50;10.00;99.90
35395;DHT22;21500;45.308;9.488;2022-12-24T17:24:16;9.90;99.90
35395;DHT22;21500;45.308;9.488;2022-12-24T17:26:43;9.90;99.90
35395;DHT22;21500;45.308;9.488;2022-12-24T17:29:09;9.90;99.90
35395;DHT22;21500;45.308;9.488;2022-12-24T17:31:35;9.90;99.90
35395;DHT22;21500;45.308;9.488;2022-12-24T17:34:05;9.90;99.90
35395;DHT22;21500;45.308;9.488;2022-12-24T17:36:31;9.90;99.90
35395;DHT22;21500;45.308;9.488;2022-12-24T17:38:57;9.90;99.90
35395;DHT22;21500;45.308;9.488;2022-12-24T17:41:22;9.90;99.90
35395;DHT22;21500;45.308;9.488;2022-12-24T17:43:48;9.90;99.90
35395;DHT22;21500;45.308;9.488;2022-12-24T17:46:23;9.90;99.90
35395;DHT22;21500;45.308;9.488;2022-12-24T17:48:50;9.90;99.90
35395;DHT22;21500;45.308;9.488;2022-12-24T17:51:19;9.90;99.90
35395;DHT22;21500;45.308;9.488;2022-12-24T17:53:46;9.80;99.90
35395;DHT22;21500;45.308;9.488;2022-12-24T17:56:12;9.80;99.90
35395;DHT22;21500;45.308;9.488;2022-12-24T17:58:40;9.80;99.90
35395;DHT22;21500;45.308;9.488;2022-12-24T18:01:16;9.80;99.90
35395;DHT22;21500;45.308;9.488;2022-12-24T18:03:43;9.90;99.90
35395;DHT22;21500;45.308;9.488;2022-12-24T18:06:11;9.80;99.90
35395;DHT22;21500;45.308;9.488;2022-12-24T18:08:38;9.90;99.90
35395;DHT22;21500;45.308;9.488;2022-12-24T18:11:15;9.90;99.90
35395;DHT22;21500;45.308;9.488;2022-12-24T18:13:41;9.80;99.90
35395;DHT22;21500;45.308;9.488;2022-12-24T18:16:37;9.80;99.90
35395;DHT22;21500;45.308;9.488;2022-12-24T18:19:04;9.80;99.90
35395;DHT22;21500;45.308;9.488;2022-12-24T18:21:32;9.90;99.90
35395;DHT22;21500;45.308;9.488;2022-12-24T18:23:58;9.80;99.90
35395;DHT22;21500;45.308;9.488;2022-12-24T18:26:26;9.80;99.90
35395;DHT22;21500;45.308;9.488;2022-12-24T18:28:53;9.80;99.90
35395;DHT22;21500;45.308;9.488;2022-12-24T18:31:20;9.80;99.90
35395;DHT22;21500;45.308;9.488;2022-12-24T18:33:47;9.80;99.90
35395;DHT22;21500;45.308;9.488;2022-12-24T18:36:14;9.80;99.90
35395;DHT22;21500;45.308;9.488;2022-12-24T18:38:40;9.80;99.90
35395;DHT22;21500;45.308;9.488;2022-12-24T18:41:11;9.80;99.90
35395;DHT22;21500;45.308;9.488;2022-12-24T18:43:38;9.80;99.90
35395;DHT22;21500;45.308;9.488;2022-12-24T18:46:14;9.80;99.90
35395;DHT22;21500;45.308;9.488;2022-12-24T18:48:40;9.80;99.90
35395;DHT22;21500;45.308;9.488;2022-12-24T18:51:08;9.80;99.90
35395;DHT22;21500;45.308;9.488;2022-12-24T18:53:34;9.70;99.90
35395;DHT22;21500;45.308;9.488;2022-12-24T18:56:12;9.80;99.90
35395;DHT22;21500;45.308;9.488;2022-12-24T18:58:39;9.80;99.90
35395;DHT22;21500;45.308;9.488;2022-12-24T19:03:35;9.80;99.90
35395;DHT22;21500;45.308;9.488;2022-12-24T19:06:01;9.80;99.90
35395;DHT22;21500;45.308;9.488;2022-12-24T19:08:27;9.80;99.90
35395;DHT22;21500;45.308;9.488;2022-12-24T19:10:53;9.80;99.90
35395;DHT22;21500;45.308;9.488;2022-12-24T19:13:19;9.80;99.90
35395;DHT22;21500;45.308;9.488;2022-12-24T19:15:44;9.80;99.90
35395;DHT22;21500;45.308;9.488;2022-12-24T19:18:10;9.80;99.90
35395;DHT22;21500;45.308;9.488;2022-12-24T19:20:39;9.80;99.90
35395;DHT22;21500;45.308;9.488;2022-12-24T19:23:06;9.80;99.90
35395;DHT22;21500;45.308;9.488;2022-12-24T19:25:33;9.80;99.90
35395;DHT22;21500;45.308;9.488;2022-12-24T19:27:58;9.80;99.90
35395;DHT22;21500;45.308;9.488;2022-12-24T19:30:24;9.80;99.90
35395;DHT22;21500;45.308;9.488;2022-12-24T19:32:50;9.80;99.90
35395;DHT22;21500;45.308;9.488;2022-12-24T19:35:16;9.80;99.90
35395;DHT22;21500;45.308;9.488;2022-12-24T19:37:42;9.90;99.90
35395;DHT22;21500;45.308;9.488;2022-12-24T19:40:08;9.90;99.90
35395;DHT22;21500;45.308;9.488;2022-12-24T19:42:34;9.90;99.90
35395;DHT22;21500;45.308;9.488;2022-12-24T19:45:00;9.90;99.90
35395;DHT22;21500;45.308;9.488;2022-12-24T19:47:26;9.90;99.90
35395;DHT22;21500;45.308;9.488;2022-12-24T19:49:51;9.90;99.90
35395;DHT22;21500;45.308;9.488;2022-12-24T19:52:17;9.90;99.90
35395;DHT22;21500;45.308;9.488;2022-12-24T19:54:43;9.90;99.90
35395;DHT22;21500;45.308;9.488;2022-12-24T19:57:09;9.90;99.90
35395;DHT22;21500;45.308;9.488;2022-12-24T19:59:36;9.90;99.90
35395;DHT22;21500;45.308;9.488;2022-12-24T20:02:02;9.90;99.90
35395;DHT22;21500;45.308;9.488;2022-12-24T20:04:28;9.90;99.90
35395;DHT22;21500;45.308;9.488;2022-12-24T20:06:53;9.90;99.90
35395;DHT22;21500;45.308;9.488;2022-12-24T20:09:19;9.90;99.90
35395;DHT22;21500;45.308;9.488;2022-12-24T20:11:48;9.90;99.90
35395;DHT22;21500;45.308;9.488;2022-12-24T20:14:13;10.00;99.90
35395;DHT22;21500;45.308;9.488;2022-12-24T20:16:39;10.00;99.90
35395;DHT22;21500;45.308;9.488;2022-12-24T20:19:05;10.00;99.90
35395;DHT22;21500;45.308;9.488;2022-12-24T20:21:32;10.00;99.90
35395;DHT22;21500;45.308;9.488;2022-12-24T20:23:58;9.90;99.90
35395;DHT22;21500;45.308;9.488;2022-12-24T20:26:25;10.00;99.90
35395;DHT22;21500;45.308;9.488;2022-12-24T20:28:52;10.00;99.90
35395;DHT22;21500;45.308;9.488;2022-12-24T20:31:27;10.00;99.90
35395;DHT22;21500;45.308;9.488;2022-12-24T20:33:55;9.90;99.90
35395;DHT22;21500;45.308;9.488;2022-12-24T20:36:22;9.90;99.90
35395;DHT22;21500;45.308;9.488;2022-12-24T20:38:50;10.00;99.90
35395;DHT22;21500;45.308;9.488;2022-12-24T20:41:23;10.00;99.90
35395;DHT22;21500;45.308;9.488;2022-12-24T20:43:49;10.00;99.90
35395;DHT22;21500;45.308;9.488;2022-12-24T20:46:16;10.00;99.90
35395;DHT22;21500;45.308;9.488;2022-12-24T20:48:42;10.00;99.90
35395;DHT22;21500;45.308;9.488;2022-12-24T20:51:13;10.00;99.90
35395;DHT22;21500;45.308;9.488;2022-12-24T20:53:39;10.00;99.90
35395;DHT22;21500;45.308;9.488;2022-12-24T20:56:07;10.00;99.90
35395;DHT22;21500;45.308;9.488;2022-12-24T20:58:33;10.00;99.90
35395;DHT22;21500;45.308;9.488;2022-12-24T21:00:59;10.00;99.90
35395;DHT22;21500;45.308;9.488;2022-12-24T21:03:24;10.00;99.90
35395;DHT22;21500;45.308;9.488;2022-12-24T21:05:50;10.00;99.90
35395;DHT22;21500;45.308;9.488;2022-12-24T21:08:16;10.00;99.90
35395;DHT22;21500;45.308;9.488;2022-12-24T21:10:41;10.00;99.90
35395;DHT22;21500;45.308;9.488;2022-12-24T21:13:10;10.00;99.90
35395;DHT22;21500;45.308;9.488;2022-12-24T21:15:37;10.00;99.90
35395;DHT22;21500;45.308;9.488;2022-12-24T21:18:04;10.00;99.90
35395;DHT22;21500;45.308;9.488;2022-12-24T21:20:39;10.00;99.90
35395;DHT22;21500;45.308;9.488;2022-12-24T21:23:05;10.00;99.90
35395;DHT22;21500;45.308;9.488;2022-12-24T21:25:31;10.00;99.90
35395;DHT22;21500;45.308;9.488;2022-12-24T21:27:56;10.00;99.90
35395;DHT22;21500;45.308;9.488;2022-12-24T21:30:22;10.00;99.90
35395;DHT22;21500;45.308;9.488;2022-12-24T21:32:48;10.00;99.90
35395;DHT22;21500;45.308;9.488;2022-12-24T21:35:15;10.00;99.90
35395;DHT22;21500;45.308;9.488;2022-12-24T21:37:41;10.00;99.90
35395;DHT22;21500;45.308;9.488;2022-12-24T21:40:07;10.00;99.90
35395;DHT22;21500;45.308;9.488;2022-12-24T21:42:34;10.00;99.90
35395;DHT22;21500;45.308;9.488;2022-12-24T21:45:00;10.00;99.90
35395;DHT22;21500;45.308;9.488;2022-12-24T21:47:27;10.00;99.90
35395;DHT22;21500;45.308;9.488;2022-12-24T21:49:52;10.00;99.90
35395;DHT22;21500;45.308;9.488;2022-12-24T21:52:37;10.00;99.90
35395;DHT22;21500;45.308;9.488;2022-12-24T21:55:06;10.00;99.90
35395;DHT22;21500;45.308;9.488;2022-12-24T21:57:33;10.00;99.90
35395;DHT22;21500;45.308;9.488;2022-12-24T22:00:17;10.00;99.90
35395;DHT22;21500;45.308;9.488;2022-12-24T22:02:47;10.00;99.90
35395;DHT22;21500;45.308;9.488;2022-12-24T22:05:13;10.00;99.90
35395;DHT22;21500;45.308;9.488;2022-12-24T22:07:39;10.00;99.90
35395;DHT22;21500;45.308;9.488;2022-12-24T22:10:23;10.00;99.90
35395;DHT22;21500;45.308;9.488;2022-12-24T22:13:07;10.00;99.90
35395;DHT22;21500;45.308;9.488;2022-12-24T22:15:35;10.00;99.90
35395;DHT22;21500;45.308;9.488;2022-12-24T22:18:06;10.00;99.90
35395;DHT22;21500;45.308;9.488;2022-12-24T22:20:34;10.00;99.90
35395;DHT22;21500;45.308;9.488;2022-12-24T22:23:01;10.00;99.90
35395;DHT22;21500;45.308;9.488;2022-12-24T22:25:28;10.00;99.90
35395;DHT22;21500;45.308;9.488;2022-12-24T22:27:57;10.00;99.90
35395;DHT22;21500;45.308;9.488;2022-12-24T22:30:23;9.90;99.90
35395;DHT22;21500;45.308;9.488;2022-12-24T22:32:48;10.00;99.90
35395;DHT22;21500;45.308;9.488;2022-12-24T22:35:14;10.00;99.90
35395;DHT22;21500;45.308;9.488;2022-12-24T22:37:40;10.00;99.90
35395;DHT22;21500;45.308;9.488;2022-12-24T22:40:07;9.90;99.90
35395;DHT22;21500;45.308;9.488;2022-12-24T22:42:33;10.00;99.90
35395;DHT22;21500;45.308;9.488;2022-12-24T22:44:59;9.90;99.90
35395;DHT22;21500;45.308;9.488;2022-12-24T22:47:27;9.90;99.90
35395;DHT22;21500;45.308;9.488;2022-12-24T22:49:53;10.00;99.90
35395;DHT22;21500;45.308;9.488;2022-12-24T22:52:19;9.90;99.90
35395;DHT22;21500;45.308;9.488;2022-12-24T22:54:44;10.00;99.90
35395;DHT22;21500;45.308;9.488;2022-12-24T22:57:11;9.90;99.90
35395;DHT22;21500;45.308;9.488;2022-12-24T22:59:37;10.00;99.90
35395;DHT22;21500;45.308;9.488;2022-12-24T23:02:05;10.00;99.90
35395;DHT22;21500;45.308;9.488;2022-12-24T23:04:39;10.10;99.90
35395;DHT22;21500;45.308;9.488;2022-12-24T23:07:06;10.10;99.90
35395;DHT22;21500;45.308;9.488;2022-12-24T23:09:32;10.00;99.90
35395;DHT22;21500;45.308;9.488;2022-12-24T23:11:58;10.00;99.90
35395;DHT22;21500;45.308;9.488;2022-12-24T23:14:24;10.00;99.90
35395;DHT22;21500;45.308;9.488;2022-12-24T23:17:09;10.00;99.90
35395;DHT22;21500;45.308;9.488;2022-12-24T23:19:35;10.00;99.90
35395;DHT22;21500;45.308;9.488;2022-12-24T23:22:02;10.10;99.90
35395;DHT22;21500;45.308;9.488;2022-12-24T23:24:28;10.00;99.90
35395;DHT22;21500;45.308;9.488;2022-12-24T23:26:54;10.00;99.90
35395;DHT22;21500;45.308;9.488;2022-12-24T23:29:20;10.20;99.90
35395;DHT22;21500;45.308;9.488;2022-12-24T23:31:46;10.10;99.90
35395;DHT22;21500;45.308;9.488;2022-12-24T23:34:12;10.10;99.90
35395;DHT22;21500;45.308;9.488;2022-12-24T23:36:38;10.10;99.90
35395;DHT22;21500;45.308;9.488;2022-12-24T23:39:03;10.00;99.90
35395;DHT22;21500;45.308;9.488;2022-12-24T23:41:31;10.10;99.90
35395;DHT22;21500;45.308;9.488;2022-12-24T23:43:57;10.00;99.90
35395;DHT22;21500;45.308;9.488;2022-12-24T23:46:22;10.00;99.90
35395;DHT22;21500;45.308;9.488;2022-12-24T23:48:52;10.00;99.90
35395;DHT22;21500;45.308;9.488;2022-12-24T23:51:19;10.00;99.90
35395;DHT22;21500;45.308;9.488;2022-12-24T23:53:49;9.90;99.90
35395;DHT22;21500;45.308;9.488;2022-12-24T23:56:15;10.00;99.90
35395;DHT22;21500;45.308;9.488;2022-12-24T23:58:43;9.90;99.90
